首页
METAR-TAF:

METAR-TAF

机场 :

廊曼国际机场

曼谷, 泰国

纬度: 13-54-45N, 经度: 100-36-24E, 海拔: 4米

当前天气观测

该预报发布于39分钟前的04:00 UTC
风速5节,风向西转西南,在南转南东西北之间变化
温度 32°C
湿度 59%
气压 1016 hPa
能見度: 9000
少量云层高于2000英尺

METAR: VTBD 210400Z 24005KT 160V310 9000 FEW020 32/23 Q1016 NOSIG

时间: 11:39 (04:39 UTC)

预报

该预报发布于5小时和39分钟前的23:00 UTC
预报有效从21日的 00点(UTC)到 22日的 06点(UTC)
风速8节,风向
能见度10公里或以上
少量云层高于3000英尺
成为
从 21日的 22点(UTC)到 21日的 24点(UTC)
风速5节,风向东南
成为
从 22日的 02点(UTC)到 22日的 04点(UTC)
风速8节,风向

TAF: VTBD 202300Z 2100/2206 19008KT 9999 FEW030 BECMG 2122/2124 13005KT BECMG 2202/2204 19008KT

超过4000个机场的气象观测和天气预报(METAR&TAF报告)。

可查询的气象台以黄色和红色小点在地图上表示。

将鼠标移到小点上方,可查看气象台名称。

然后点击查看天气观测和预报。

如需切换地图:点击带黑十字的绿色按钮放大地图;点击带横线的绿色按钮缩小地图;或者点击绿色箭头查看邻近地区的地图。


METAR-TAF: